Time;durP1;ratioP1;P1;durP2;ratioP2;P2;SDS_P1;SDS_P2;PMS_P1;PMS_P2;Temp;Humidity;BMP_temperature;BMP_pressure;BME280_temperature;BME280_humidity;BME280_pressure;Samples;Min_cycle;Max_cycle;Signal;HPM_P1;HPM_P2
2021/09/29 00:00:08;;;;;;;14.35;7.97;;;;;;;13.10;66.97;101426.13;1677457;82;25798;-65
2021/09/29 00:02:34;;;;;;;13.45;7.90;;;;;;;13.08;67.06;101424.44;1683302;83;25767;-63
2021/09/29 00:05:00;;;;;;;17.40;7.83;;;;;;;13.03;67.04;101415.20;1687693;83;25766;-63
2021/09/29 00:07:26;;;;;;;12.53;7.60;;;;;;;12.98;67.09;101417.24;1667430;83;27414;-65
2021/09/29 00:09:52;;;;;;;15.10;7.87;;;;;;;12.91;67.11;101414.40;1691985;83;25733;-65
2021/09/29 00:12:18;;;;;;;16.50;7.08;;;;;;;12.88;67.22;101418.09;1683308;82;25822;-64
2021/09/29 00:14:43;;;;;;;14.25;7.85;;;;;;;12.85;67.19;101409.27;1662468;82;25779;-65
2021/09/29 00:17:09;;;;;;;16.23;7.53;;;;;;;12.78;67.27;101409.98;1668989;82;25816;-65
2021/09/29 00:19:35;;;;;;;16.30;7.72;;;;;;;12.76;67.35;101413.20;1656471;83;27395;-64
2021/09/29 00:22:01;;;;;;;13.28;7.72;;;;;;;12.76;67.37;101411.86;1687528;82;25722;-65
2021/09/29 00:24:27;;;;;;;16.90;7.22;;;;;;;12.69;67.36;101413.04;1679523;82;26009;-65
2021/09/29 00:26:52;;;;;;;15.75;7.65;;;;;;;12.66;67.48;101411.81;1673339;82;25811;-65
2021/09/29 00:29:18;;;;;;;14.03;6.47;;;;;;;12.63;67.46;101420.88;1686936;82;25913;-65
2021/09/29 00:31:45;;;;;;;13.22;8.08;;;;;;;12.60;67.55;101416.97;1651617;84;28120;-65
2021/09/29 00:34:22;;;;;;;12.93;6.87;;;;;;;12.58;67.61;101416.16;1666301;84;26548;-65
2021/09/29 00:36:47;;;;;;;14.63;6.80;;;;;;;12.54;67.57;101413.17;1705223;82;25807;-65
2021/09/29 00:39:14;;;;;;;14.05;7.10;;;;;;;12.50;67.65;101422.30;1681607;83;26328;-65
2021/09/29 00:41:45;;;;;;;13.55;7.55;;;;;;;12.47;67.73;101416.16;1687970;83;25364;-64
2021/09/29 00:44:09;;;;;;;12.78;6.75;;;;;;;12.45;67.76;101416.69;1676956;84;27400;-65
2021/09/29 00:46:36;;;;;;;12.00;6.78;;;;;;;12.42;67.79;101412.31;1669245;83;25795;-64
2021/09/29 00:49:02;;;;;;;15.28;8.03;;;;;;;12.38;67.76;101412.48;1685164;83;25847;-65
2021/09/29 00:51:28;;;;;;;18.98;7.75;;;;;;;12.34;67.91;101411.27;1680029;83;25742;-64
2021/09/29 00:53:55;;;;;;;13.13;7.37;;;;;;;12.31;67.83;101411.84;1700696;82;25667;-65
2021/09/29 00:56:22;;;;;;;11.63;7.37;;;;;;;12.24;67.95;101415.23;1683136;83;28021;-62
2021/09/29 00:58:49;;;;;;;12.63;7.22;;;;;;;12.20;68.00;101410.91;1697221;83;25750;-63
2021/09/29 01:01:16;;;;;;;11.78;7.28;;;;;;;12.17;68.03;101414.18;1670614;83;27751;-63
2021/09/29 01:03:45;;;;;;;13.50;8.08;;;;;;;12.15;68.10;101409.33;1684518;83;26681;-63
2021/09/29 01:06:19;;;;;;;15.20;7.20;;;;;;;12.12;68.19;101409.44;1690029;83;26492;-63
2021/09/29 01:09:06;;;;;;;14.83;7.50;;;;;;;12.13;68.20;101411.20;1688362;83;28007;-63
2021/09/29 01:11:56;;;;;;;13.05;7.22;;;;;;;12.09;68.21;101405.53;1659265;83;25862;-63
2021/09/29 01:14:45;;;;;;;16.02;7.12;;;;;;;12.07;68.35;101406.92;1668569;83;26313;-64
2021/09/29 01:17:15;;;;;;;14.63;8.08;;;;;;;12.06;68.35;101404.30;1664061;84;25787;-64
2021/09/29 01:20:12;;;;;;;11.83;7.28;;;;;;;12.03;68.45;101407.52;1652672;84;25790;-64
2021/09/29 01:23:03;;;;;;;15.45;8.75;;;;;;;12.05;68.48;101403.89;1659995;83;27493;-64
2021/09/29 01:26:04;;;;;;;13.32;7.40;;;;;;;12.07;68.54;101404.71;1696712;82;25770;-63
2021/09/29 01:28:42;;;;;;;14.65;6.97;;;;;;;12.06;68.54;101404.30;1688416;82;25781;-63
2021/09/29 01:31:09;;;;;;;17.55;7.33;;;;;;;12.02;68.63;101400.38;1682471;83;26495;-64
2021/09/29 01:33:37;;;;;;;14.23;7.30;;;;;;;12.02;68.61;101392.32;1657387;83;25792;-63
2021/09/29 01:36:04;;;;;;;11.95;7.50;;;;;;;12.03;68.71;101390.52;1665208;84;28105;-63
2021/09/29 01:38:31;;;;;;;11.80;6.65;;;;;;;12.01;68.71;101383.85;1658218;83;27851;-63
2021/09/29 01:40:57;;;;;;;16.15;7.70;;;;;;;12.00;68.73;101379.41;1674549;84;25820;-63
2021/09/29 01:43:24;;;;;;;14.47;7.97;;;;;;;11.99;68.79;101373.63;1685805;84;27863;-63
2021/09/29 01:45:49;;;;;;;13.83;6.40;;;;;;;11.99;68.87;101376.31;1671639;83;25848;-63
2021/09/29 01:48:17;;;;;;;13.18;7.67;;;;;;;11.98;68.84;101374.56;1683016;83;27556;-63
2021/09/29 01:50:47;;;;;;;10.25;6.95;;;;;;;11.93;68.82;101368.48;1631232;85;25824;-63
2021/09/29 01:53:16;;;;;;;14.45;7.12;;;;;;;11.90;68.88;101378.00;1697875;82;25719;-71
2021/09/29 01:55:43;;;;;;;11.33;7.35;;;;;;;11.84;68.92;101375.55;1669237;83;25756;-72
2021/09/29 01:58:09;;;;;;;13.32;8.10;;;;;;;11.83;68.96;101379.63;1673967;83;25811;-71
2021/09/29 02:00:37;;;;;;;14.98;8.48;;;;;;;11.76;68.88;101380.28;1652430;85;29547;-71
2021/09/29 02:03:03;;;;;;;11.78;7.12;;;;;;;11.70;69.01;101374.67;1643562;86;25739;-71
2021/09/29 02:05:34;;;;;;;15.65;7.60;;;;;;;11.67;69.07;101382.84;1665520;84;25817;-71
2021/09/29 02:08:03;;;;;;;;;;;;;;;11.64;69.08;101382.07;1678164;84;25780;-71
2021/09/29 02:10:29;;;;;;;11.33;7.17;;;;;;;11.59;69.09;101379.55;1672158;83;25775;-71
2021/09/29 02:12:55;;;;;;;12.37;7.53;;;;;;;11.54;69.20;101387.36;1649404;84;27458;-71
2021/09/29 02:15:21;;;;;;;14.15;7.00;;;;;;;11.54;69.25;101383.33;1653996;84;25856;-71
2021/09/29 02:17:49;;;;;;;16.55;8.30;;;;;;;11.50;69.22;101385.25;1655593;84;25734;-71
2021/09/29 02:20:15;;;;;;;12.50;7.78;;;;;;;11.48;69.27;101380.86;1662471;83;26066;-71
2021/09/29 02:22:41;;;;;;;15.18;7.50;;;;;;;11.47;69.31;101375.96;1631993;85;26429;-71
2021/09/29 02:25:10;;;;;;;12.55;8.25;;;;;;;11.43;69.25;101378.81;1654514;83;29476;-71
2021/09/29 02:27:36;;;;;;;13.72;7.92;;;;;;;11.38;69.36;101381.19;1670386;84;26196;-71
2021/09/29 02:30:07;;;;;;;17.07;7.87;;;;;;;11.28;69.37;101375.73;1674238;83;26185;-71
2021/09/29 02:32:36;;;;;;;12.68;8.23;;;;;;;11.33;69.46;101384.50;1663669;84;25790;-71
2021/09/29 02:35:03;;;;;;;14.23;8.20;;;;;;;11.30;69.44;101387.28;1649314;83;26277;-71
2021/09/29 02:37:30;;;;;;;18.52;8.83;;;;;;;11.28;69.55;101384.24;1654063;84;27581;-72
2021/09/29 02:39:56;;;;;;;15.75;8.20;;;;;;;11.26;69.56;101381.61;1638820;84;26624;-72
2021/09/29 02:42:22;;;;;;;19.35;8.05;;;;;;;11.23;69.54;101380.38;1634613;83;25953;-71
2021/09/29 02:44:48;;;;;;;15.53;7.80;;;;;;;11.20;69.55;101383.63;1668764;84;25855;-71
2021/09/29 02:47:13;;;;;;;14.38;8.03;;;;;;;11.16;69.55;101385.53;1649861;83;25404;-71
2021/09/29 02:49:39;;;;;;;15.65;9.25;;;;;;;11.11;69.59;101383.94;1654603;84;25774;-72
2021/09/29 02:52:06;;;;;;;15.00;7.50;;;;;;;11.08;69.69;101386.27;1658255;84;27267;-72
2021/09/29 02:54:31;;;;;;;14.38;7.87;;;;;;;11.05;69.66;101385.90;1652020;85;25719;-71
2021/09/29 02:56:57;;;;;;;15.20;7.55;;;;;;;11.03;69.77;101388.22;1619447;86;27933;-70
2021/09/29 02:59:23;;;;;;;14.47;8.43;;;;;;;11.00;69.73;101393.22;1647942;83;25753;-71
2021/09/29 03:01:49;;;;;;;15.32;8.13;;;;;;;10.97;69.83;101383.94;1666078;83;27471;-71
2021/09/29 03:04:15;;;;;;;17.60;7.87;;;;;;;10.96;69.89;101384.86;1640615;83;26014;-71
2021/09/29 03:06:41;;;;;;;14.23;8.93;;;;;;;10.94;69.81;101385.38;1657384;84;26595;-71
2021/09/29 03:09:07;;;;;;;13.70;8.28;;;;;;;10.90;69.78;101382.84;1658303;83;25822;-71
2021/09/29 03:11:33;;;;;;;14.18;8.55;;;;;;;10.84;69.92;101381.70;1670149;83;25719;-71
2021/09/29 03:13:59;;;;;;;13.62;8.50;;;;;;;10.82;69.97;101377.73;1684607;83;27455;-70
2021/09/29 03:16:25;;;;;;;18.55;9.33;;;;;;;10.80;69.95;101381.39;1656074;83;25828;-71
2021/09/29 03:18:51;;;;;;;15.55;8.88;;;;;;;10.76;70.03;101382.42;1678542;84;26536;-71
2021/09/29 03:21:18;;;;;;;14.43;7.90;;;;;;;10.73;70.11;101374.01;1672075;83;27866;-71
2021/09/29 03:23:43;;;;;;;14.75;8.35;;;;;;;10.72;70.14;101379.84;1655844;83;25786;-73
2021/09/29 03:26:10;;;;;;;14.20;8.65;;;;;;;10.69;70.10;101370.55;1656317;83;27436;-72
2021/09/29 03:28:36;;;;;;;15.13;8.23;;;;;;;10.66;70.12;101372.45;1661515;83;25852;-72
2021/09/29 03:31:02;;;;;;;16.67;9.05;;;;;;;10.63;70.19;101372.55;1679970;83;25784;-72
2021/09/29 03:33:28;;;;;;;13.30;8.15;;;;;;;10.60;70.28;101368.16;1691819;83;25799;-73
2021/09/29 03:35:54;;;;;;;15.83;9.35;;;;;;;10.58;70.30;101378.52;1672015;84;25772;-73
2021/09/29 03:38:20;;;;;;;16.30;9.05;;;;;;;10.57;70.43;101372.74;1682589;83;27423;-72
2021/09/29 03:40:46;;;;;;;23.65;10.45;;;;;;;10.54;70.35;101371.04;1663977;83;25803;-72
2021/09/29 03:43:12;;;;;;;15.50;9.53;;;;;;;10.52;70.46;101369.33;1682594;84;25982;-72
2021/09/29 03:45:38;;;;;;;14.38;8.53;;;;;;;10.49;70.44;101366.75;1696008;84;27894;-72
2021/09/29 03:48:04;;;;;;;18.98;10.05;;;;;;;10.41;70.43;101368.33;1699318;83;25771;-73
2021/09/29 03:50:30;;;;;;;14.28;8.90;;;;;;;10.39;70.57;101369.75;1672898;83;27386;-72
2021/09/29 03:52:57;;;;;;;20.25;9.28;;;;;;;10.37;70.57;101376.08;1672797;83;25881;-73
2021/09/29 03:55:23;;;;;;;15.58;9.20;;;;;;;10.34;70.53;101383.75;1667623;83;25733;-74
2021/09/29 03:57:49;;;;;;;18.15;9.35;;;;;;;10.29;70.65;101374.98;1703632;82;26316;-73
2021/09/29 04:00:18;;;;;;;15.80;9.08;;;;;;;10.28;70.76;101381.26;1686344;82;25766;-73
2021/09/29 04:02:44;;;;;;;17.30;9.38;;;;;;;10.26;70.73;101373.73;1684164;83;27521;-73
2021/09/29 04:05:11;;;;;;;14.63;9.90;;;;;;;10.23;70.79;101379.64;1661641;84;25452;-73
2021/09/29 04:07:38;;;;;;;16.02;9.65;;;;;;;10.19;70.78;101376.61;1684447;83;25773;-73
2021/09/29 04:10:06;;;;;;;15.38;9.80;;;;;;;10.14;70.85;101377.20;1700225;83;25896;-73
2021/09/29 04:12:33;;;;;;;16.52;10.00;;;;;;;10.11;70.89;101374.62;1667570;83;25726;-73
2021/09/29 04:14:59;;;;;;;13.88;9.30;;;;;;;10.07;70.93;101365.80;1658077;83;27468;-73
2021/09/29 04:17:25;;;;;;;18.32;9.78;;;;;;;10.05;70.99;101371.20;1683090;83;25837;-73
2021/09/29 04:19:51;;;;;;;17.23;9.75;;;;;;;10.04;70.97;101369.91;1656988;84;26262;-73
2021/09/29 04:22:17;;;;;;;18.98;10.32;;;;;;;9.98;70.96;101369.63;1689063;84;26206;-72
2021/09/29 04:24:44;;;;;;;13.03;8.48;;;;;;;9.95;71.07;101376.87;1687737;83;25822;-72
2021/09/29 04:27:12;;;;;;;15.72;9.48;;;;;;;9.92;71.02;101372.94;1657605;84;29565;-72
2021/09/29 04:29:39;;;;;;;17.92;10.23;;;;;;;9.86;71.09;101376.67;1682064;82;26485;-72
2021/09/29 04:32:09;;;;;;;18.32;10.23;;;;;;;9.84;71.19;101370.48;1660554;84;25787;-72
2021/09/29 04:34:36;;;;;;;18.62;10.03;;;;;;;9.82;71.21;101369.66;1676902;84;26332;-72
2021/09/29 04:37:02;;;;;;;21.10;10.75;;;;;;;9.77;71.24;101374.26;1675611;83;25873;-72
2021/09/29 04:39:29;;;;;;;15.40;9.65;;;;;;;9.75;71.24;101371.63;1683431;83;27401;-71
2021/09/29 04:41:56;;;;;;;14.35;9.33;;;;;;;9.71;71.22;101371.75;1672105;83;27233;-73
2021/09/29 04:44:21;;;;;;;16.30;9.68;;;;;;;9.67;71.34;101368.28;1667649;84;26166;-72
2021/09/29 04:46:47;;;;;;;18.62;11.20;;;;;;;9.64;71.43;101375.06;1720100;81;26658;-72
2021/09/29 04:49:13;;;;;;;16.50;9.48;;;;;;;9.64;71.51;101372.84;1703105;81;26515;-72
2021/09/29 04:51:39;;;;;;;15.58;9.50;;;;;;;9.64;71.51;101371.05;1700957;82;27389;-72
2021/09/29 04:54:06;;;;;;;16.40;9.65;;;;;;;9.64;71.52;101375.06;1691742;83;25368;-72
2021/09/29 04:56:32;;;;;;;18.37;9.85;;;;;;;9.61;71.50;101372.47;1678909;83;25765;-73
2021/09/29 04:58:58;;;;;;;16.52;8.90;;;;;;;9.57;71.48;101373.94;1688975;83;25822;-73
2021/09/29 05:01:26;;;;;;;18.00;9.25;;;;;;;9.55;71.65;101373.09;1699639;82;25788;-72
2021/09/29 05:03:53;;;;;;;15.15;9.58;;;;;;;9.56;71.68;101384.22;1680992;83;27481;-73
2021/09/29 05:06:20;;;;;;;16.35;9.05;;;;;;;9.56;71.65;101373.52;1686024;83;25729;-73
2021/09/29 05:08:49;;;;;;;17.25;9.85;;;;;;;9.53;71.70;101384.30;1663948;83;26041;-73
2021/09/29 05:11:20;;;;;;;15.65;9.58;;;;;;;9.53;71.80;101379.83;1678043;83;25834;-72
2021/09/29 05:13:47;;;;;;;22.57;10.43;;;;;;;9.54;71.79;101378.03;1687972;83;25875;-72
2021/09/29 05:16:13;;;;;;;15.60;9.45;;;;;;;9.55;71.86;101377.11;1678509;83;27401;-73
2021/09/29 05:18:39;;;;;;;17.40;9.70;;;;;;;9.57;71.88;101373.94;1670467;83;25712;-74
2021/09/29 05:21:05;;;;;;;15.93;10.55;;;;;;;9.58;71.88;101369.88;1655009;84;26930;-73
2021/09/29 05:23:32;;;;;;;19.17;10.53;;;;;;;9.60;71.94;101366.70;1662890;84;25772;-71
2021/09/29 05:25:59;;;;;;;19.57;10.63;;;;;;;9.63;71.97;101364.40;1668659;83;26442;-70
2021/09/29 05:28:32;;;;;;;21.23;11.83;;;;;;;9.63;71.84;101369.75;1720559;81;27392;-71
2021/09/29 05:30:58;;;;;;;23.50;9.80;;;;;;;9.63;71.96;101367.95;1680307;83;27170;-71
2021/09/29 05:33:25;;;;;;;18.95;10.38;;;;;;;9.66;72.06;101367.87;1708562;82;25709;-72
2021/09/29 05:35:51;;;;;;;20.15;10.20;;;;;;;9.70;72.02;101365.52;1695651;82;25768;-72
2021/09/29 05:38:17;;;;;;;20.30;10.60;;;;;;;9.72;72.03;101363.68;1687602;82;25719;-72
2021/09/29 05:40:43;;;;;;;14.07;8.80;;;;;;;9.76;72.04;101364.01;1655755;84;29422;-73
2021/09/29 05:43:10;;;;;;;14.30;8.13;;;;;;;9.77;71.94;101364.89;1642803;85;27309;-72
2021/09/29 05:45:36;;;;;;;14.75;8.98;;;;;;;9.75;71.95;101369.41;1678481;84;25727;-72
2021/09/29 05:48:02;;;;;;;14.43;8.95;;;;;;;9.75;72.01;101378.31;1649084;85;25750;-71
2021/09/29 05:50:28;;;;;;;16.27;9.80;;;;;;;9.80;72.08;101378.19;1646971;85;25660;-72
2021/09/29 05:52:54;;;;;;;18.65;9.50;;;;;;;9.81;72.05;101374.59;1667730;84;27388;-71
2021/09/29 05:55:19;;;;;;;19.55;10.05;;;;;;;9.84;72.01;101378.98;1660282;84;25757;-71
2021/09/29 05:57:45;;;;;;;19.60;8.60;;;;;;;9.88;72.06;101377.97;1667528;84;26108;-71
2021/09/29 06:00:12;;;;;;;18.48;8.70;;;;;;;9.93;72.09;101379.59;1670021;84;25733;-71
2021/09/29 06:02:40;;;;;;;18.87;10.45;;;;;;;9.98;72.12;101380.80;1694994;82;25816;-72
2021/09/29 06:05:07;;;;;;;19.77;9.38;;;;;;;10.05;72.08;101377.02;1694083;82;27348;-72
2021/09/29 06:07:33;;;;;;;19.62;9.15;;;;;;;10.12;72.08;101379.05;1694649;82;25771;-74
2021/09/29 06:09:59;;;;;;;13.78;8.90;;;;;;;10.17;72.05;101379.33;1701608;82;25839;-72
2021/09/29 06:12:25;;;;;;;14.20;8.05;;;;;;;10.19;71.99;101373.47;1700769;82;26231;-71
2021/09/29 06:14:53;;;;;;;16.80;9.65;;;;;;;10.24;71.97;101373.36;1698964;82;25658;-70
2021/09/29 06:17:24;;;;;;;18.42;10.53;;;;;;;10.28;72.00;101366.98;1699487;84;27507;-71
2021/09/29 06:19:50;;;;;;;15.32;8.98;;;;;;;10.36;71.98;101363.61;1698617;84;25719;-71
2021/09/29 06:22:17;;;;;;;21.37;9.45;;;;;;;10.42;71.92;101364.72;1700014;83;25641;-74
2021/09/29 06:24:42;;;;;;;14.85;8.70;;;;;;;10.48;71.94;101360.52;1697660;82;25749;-74
2021/09/29 06:27:09;;;;;;;25.85;10.53;;;;;;;10.56;71.92;101361.14;1693027;82;25861;-70
2021/09/29 06:29:35;;;;;;;18.60;9.38;;;;;;;10.65;71.92;101359.97;1670880;83;27481;-71
2021/09/29 06:32:02;;;;;;;20.60;9.35;;;;;;;10.73;71.85;101362.82;1658422;83;26149;-70
2021/09/29 06:34:30;;;;;;;15.75;8.68;;;;;;;10.81;71.77;101359.89;1677916;83;25744;-69
2021/09/29 06:36:56;;;;;;;16.62;8.93;;;;;;;10.86;71.71;101356.59;1667755;83;26315;-70
2021/09/29 06:39:23;;;;;;;18.32;10.10;;;;;;;10.92;71.72;101351.48;1666790;82;25865;-70
2021/09/29 06:41:50;;;;;;;25.95;10.08;;;;;;;10.98;71.68;101355.30;1683349;83;27498;-71
2021/09/29 06:44:17;;;;;;;19.17;9.03;;;;;;;11.03;71.54;101353.34;1686853;83;25826;-71
2021/09/29 06:46:43;;;;;;;24.23;10.65;;;;;;;11.05;71.51;101352.36;1678787;82;25675;-71
2021/09/29 06:49:09;;;;;;;20.90;9.33;;;;;;;11.10;71.45;101351.33;1689125;83;26593;-71
2021/09/29 06:51:35;;;;;;;18.07;9.10;;;;;;;11.16;71.42;101360.05;1683758;83;25831;-71
2021/09/29 06:54:02;;;;;;;22.02;9.08;;;;;;;11.23;71.36;101356.69;1681636;82;28394;-71
2021/09/29 06:56:28;;;;;;;20.77;8.65;;;;;;;11.26;71.21;101358.80;1672851;82;26389;-71
2021/09/29 06:58:54;;;;;;;25.15;9.45;;;;;;;11.29;71.20;101361.84;1680772;83;25935;-70
2021/09/29 07:01:20;;;;;;;17.25;8.25;;;;;;;11.35;71.18;101367.88;1676156;83;25862;-71
2021/09/29 07:03:47;;;;;;;15.00;8.60;;;;;;;11.43;71.19;101362.70;1677107;82;25814;-70
2021/09/29 07:06:14;;;;;;;20.08;9.63;;;;;;;11.54;71.12;101368.09;1681350;83;27393;-69
2021/09/29 07:08:40;;;;;;;15.72;8.75;;;;;;;11.58;71.01;101371.09;1691811;83;25727;-70
2021/09/29 07:11:06;;;;;;;20.05;9.05;;;;;;;11.65;71.00;101369.05;1668668;83;26339;-71
2021/09/29 07:13:33;;;;;;;23.55;9.80;;;;;;;11.72;70.92;101373.27;1680647;83;25790;-71
2021/09/29 07:15:59;;;;;;;15.40;8.95;;;;;;;11.80;70.87;101370.34;1676796;82;25839;-71
2021/09/29 07:18:30;;;;;;;16.05;8.90;;;;;;;11.88;70.79;101376.30;1670749;82;27410;-70
2021/09/29 07:20:56;;;;;;;18.17;9.58;;;;;;;11.93;70.68;101371.64;1663268;82;27119;-70
2021/09/29 07:23:22;;;;;;;17.60;9.73;;;;;;;11.99;70.67;101368.25;1691557;82;26527;-71
2021/09/29 07:25:49;;;;;;;17.50;8.30;;;;;;;12.07;70.60;101365.28;1665627;83;26008;-73
2021/09/29 07:28:15;;;;;;;22.93;10.58;;;;;;;12.12;70.45;101363.30;1676725;83;26588;-72
2021/09/29 07:30:42;;;;;;;18.37;9.43;;;;;;;12.18;70.40;101366.21;1691630;82;27458;-73
2021/09/29 07:33:08;;;;;;;17.82;8.98;;;;;;;12.22;70.31;101354.41;1669581;83;25850;-72
2021/09/29 07:35:37;;;;;;;18.77;8.95;;;;;;;12.24;70.15;101344.47;1682078;83;26460;-72
2021/09/29 07:38:03;;;;;;;13.70;8.78;;;;;;;12.28;70.17;101344.77;1681344;83;25906;-72
2021/09/29 07:40:29;;;;;;;16.37;9.08;;;;;;;12.36;70.13;101338.62;1694514;83;25823;-72
2021/09/29 07:42:56;;;;;;;16.15;8.78;;;;;;;12.44;70.04;101332.47;1670200;83;26644;-71
2021/09/29 07:45:24;;;;;;;24.32;9.50;;;;;;;12.53;69.90;101327.19;1717295;81;25754;-71
2021/09/29 07:47:51;;;;;;;17.57;8.95;;;;;;;12.52;69.79;101326.78;1720601;81;26445;-72
2021/09/29 07:50:19;;;;;;;20.52;9.00;;;;;;;12.59;69.80;101325.13;1717676;81;25842;-72
2021/09/29 07:52:46;;;;;;;17.37;9.10;;;;;;;12.65;69.70;101318.62;1718433;81;26389;-72
2021/09/29 07:55:13;;;;;;;14.58;8.85;;;;;;;12.72;69.64;101313.86;1679206;83;28471;-72
2021/09/29 07:57:40;;;;;;;14.85;9.48;;;;;;;12.77;69.55;101312.73;1671393;83;25750;-73
2021/09/29 08:00:09;;;;;;;18.85;9.10;;;;;;;12.85;69.50;101313.75;1660419;84;26181;-72
2021/09/29 08:02:35;;;;;;;19.85;9.38;;;;;;;12.97;69.45;101307.38;1666237;84;25869;-71
2021/09/29 08:05:03;;;;;;;17.80;9.45;;;;;;;13.07;69.28;101304.27;1675225;83;25785;-72
2021/09/29 08:07:30;;;;;;;14.35;8.55;;;;;;;13.17;69.21;101305.65;1685605;83;27415;-71
2021/09/29 08:09:56;;;;;;;15.00;8.78;;;;;;;13.20;69.01;101301.01;1713111;81;25760;-71
2021/09/29 08:12:23;;;;;;;17.52;9.70;;;;;;;13.32;68.96;101300.94;1705361;81;26570;-71
2021/09/29 08:14:49;;;;;;;18.73;8.95;;;;;;;13.41;68.88;101299.19;1699233;81;27892;-71
2021/09/29 08:17:16;;;;;;;18.45;8.25;;;;;;;13.52;68.80;101295.54;1723696;81;25796;-71
2021/09/29 08:19:42;;;;;;;13.62;8.53;;;;;;;13.67;68.73;101295.78;1714954;81;27503;-71
2021/09/29 08:22:09;;;;;;;13.45;8.73;;;;;;;13.79;68.53;101290.70;1711784;81;25787;-71
2021/09/29 08:27:26;;;;;;;17.12;8.08;;;;;;;13.93;68.17;101277.46;1703927;81;25825;-71
2021/09/29 08:29:52;;;;;;;17.35;9.18;;;;;;;14.06;68.10;101276.41;1719851;81;26366;-71
2021/09/29 08:34:50;;;;;;;34.13;15.40;;;;;;;14.26;67.79;101266.89;1707019;81;26707;-71
2021/09/29 08:40:03;;;;;;;18.30;8.78;;;;;;;14.45;67.50;101262.84;1714485;81;26605;-71
2021/09/29 08:42:30;;;;;;;17.37;8.85;;;;;;;14.56;67.36;101261.84;1713330;81;25763;-69
2021/09/29 08:45:03;;;;;;;18.30;8.48;;;;;;;14.67;67.18;101263.13;1712558;81;27505;-70
2021/09/29 08:47:49;;;;;;;16.50;9.10;;;;;;;14.76;66.98;101257.27;1719150;81;26531;-70
2021/09/29 08:50:14;;;;;;;15.18;7.40;;;;;;;14.85;66.84;101252.27;1717393;81;25763;-69
2021/09/29 09:17:04;;;;;;;19.02;7.22;;;;;;;15.82;65.14;101208.30;1721397;81;25849;-62
2021/09/29 09:19:31;;;;;;;13.00;6.97;;;;;;;15.86;64.87;101211.23;1722599;81;25847;-63
2021/09/29 09:22:03;;;;;;;15.23;6.40;;;;;;;15.90;64.65;101212.80;1716763;81;25760;-62
2021/09/29 09:24:33;;;;;;;13.35;6.70;;;;;;;15.96;64.36;101203.95;1720632;81;27473;-62
2021/09/29 09:27:07;;;;;;;11.30;6.05;;;;;;;16.02;64.09;101196.84;1723192;81;26013;-64
2021/09/29 09:29:48;;;;;;;19.05;6.75;;;;;;;16.06;63.87;101199.77;1718820;81;25833;-63
2021/09/29 09:32:19;;;;;;;11.18;6.17;;;;;;;16.10;63.57;101195.92;1713123;81;25753;-62
2021/09/29 09:34:45;;;;;;;15.98;6.45;;;;;;;16.16;63.34;101186.98;1716487;81;25725;-64
2021/09/29 09:37:15;;;;;;;11.57;6.05;;;;;;;16.22;62.95;101189.80;1710924;81;27536;-63
2021/09/29 09:39:43;;;;;;;17.23;7.10;;;;;;;16.23;62.62;101184.79;1710677;81;44092;-65
2021/09/29 09:42:11;;;;;;;13.58;7.30;;;;;;;16.21;62.34;101184.00;1713403;81;25749;-64
2021/09/29 09:44:41;;;;;;;8.68;5.30;;;;;;;16.23;62.18;101186.14;1716848;81;26590;-64
2021/09/29 09:47:20;;;;;;;12.90;5.78;;;;;;;16.28;61.94;101183.17;1705151;81;33145;-64
2021/09/29 09:49:48;;;;;;;11.60;5.28;;;;;;;16.28;61.72;101178.63;1710630;81;27479;-64
2021/09/29 09:52:33;;;;;;;17.57;5.70;;;;;;;16.34;61.56;101180.11;1716606;81;26241;-63
2021/09/29 09:55:09;;;;;;;18.73;6.42;;;;;;;16.34;61.33;101174.21;1710397;81;25914;-64
2021/09/29 09:57:39;;;;;;;17.45;5.80;;;;;;;16.33;61.09;101175.17;1710554;81;26175;-64
2021/09/29 10:00:08;;;;;;;12.03;5.40;;;;;;;16.32;60.88;101157.20;1704335;81;25860;-64
2021/09/29 10:02:51;;;;;;;9.73;5.60;;;;;;;16.34;60.50;101161.16;1710595;81;28218;-63
2021/09/29 10:05:19;;;;;;;10.55;5.42;;;;;;;16.31;60.30;101166.28;1715541;81;26131;-65
2021/09/29 10:07:46;;;;;;;12.65;5.85;;;;;;;16.35;60.22;101150.25;1719416;81;25763;-63
2021/09/29 10:10:25;;;;;;;12.23;5.62;;;;;;;16.45;60.12;101147.39;1715020;81;25793;-63
2021/09/29 10:24:09;;;;;;;17.07;6.08;;;;;;;16.72;58.93;101133.19;1718060;81;25745;-63
2021/09/29 10:26:29;;;;;;;10.55;6.05;;;;;;;16.74;58.96;101128.07;1717952;81;25751;-63
2021/09/29 10:29:09;;;;;;;17.70;6.60;;;;;;;16.83;58.79;101127.99;1723833;81;27476;-65
2021/09/29 10:32:00;;;;;;;14.83;6.08;;;;;;;16.86;58.69;101119.67;1717057;81;26091;-64
2021/09/29 10:37:56;;;;;;;11.80;6.20;;;;;;;16.88;58.24;101118.62;1717318;81;26568;-64
2021/09/29 10:42:39;;;;;;;10.53;5.30;;;;;;;17.11;57.93;101109.05;1718717;81;33694;-63
2021/09/29 10:45:29;;;;;;;12.47;6.03;;;;;;;17.18;57.73;101100.05;1707234;81;27203;-64
2021/09/29 11:27:15;;;;;;;13.35;5.70;;;;;;;17.96;55.64;101061.09;1716455;81;26371;-67
2021/09/29 11:29:00;;;;;;;13.18;5.80;;;;;;;18.40;55.07;101064.31;1725638;81;25733;-67
2021/09/29 11:31:23;;;;;;;12.63;6.03;;;;;;;18.68;54.29;101054.27;1724814;81;25750;-67
2021/09/29 11:34:04;;;;;;;12.05;5.40;;;;;;;18.68;54.29;101054.27;1694042;83;26441;-67
2021/09/29 11:39:33;;;;;;;15.72;5.28;;;;;;;18.88;54.02;101048.78;1680438;83;26373;-67
2021/09/29 12:09:52;;;;;;;11.70;5.83;;;;;;;19.40;52.63;101043.15;1695311;82;25785;-67
2021/09/29 12:12:17;;;;;;;23.38;6.50;;;;;;;19.39;52.52;101046.84;1692248;83;26145;-67
2021/09/29 12:14:57;;;;;;;19.65;6.00;;;;;;;19.34;52.45;101020.50;1690769;83;25776;-67
2021/09/29 12:17:31;;;;;;;17.65;6.05;;;;;;;19.48;52.25;101034.42;1689693;83;28211;-67
2021/09/29 12:20:08;;;;;;;15.28;5.78;;;;;;;19.50;51.74;101031.97;1673440;83;25864;-67
2021/09/29 12:22:30;;;;;;;;;;;;;;;19.26;51.84;101011.55;1688587;83;25800;-68
2021/09/29 12:25:07;;;;;;;14.23;5.95;;;;;;;19.52;51.79;101035.48;1678366;83;25994;-67
2021/09/29 12:27:48;;;;;;;17.37;6.75;;;;;;;19.52;51.86;101042.77;1682515;83;25760;-67
2021/09/29 12:30:20;;;;;;;14.58;7.45;;;;;;;19.50;51.25;101039.26;1683677;83;27478;-67
2021/09/29 12:33:15;;;;;;;15.55;6.55;;;;;;;19.52;51.49;101038.20;1699570;81;25826;-67
2021/09/29 12:35:44;;;;;;;14.68;5.83;;;;;;;19.63;51.56;101038.27;1710054;81;26489;-67
2021/09/29 12:38:07;;;;;;;14.15;6.28;;;;;;;19.73;51.61;101032.51;1710847;81;26490;-67
2021/09/29 12:40:36;;;;;;;13.80;6.15;;;;;;;19.87;51.37;101023.80;1701997;81;25876;-67
2021/09/29 12:43:13;;;;;;;10.28;6.08;;;;;;;19.92;51.24;101028.39;1704447;81;27379;-67
2021/09/29 12:45:46;;;;;;;19.40;6.65;;;;;;;19.99;51.21;101024.22;1712777;81;25767;-67
2021/09/29 12:48:12;;;;;;;14.68;6.80;;;;;;;19.92;50.72;101016.16;1713788;81;26347;-67
2021/09/29 12:50:48;;;;;;;15.83;7.12;;;;;;;20.00;50.72;101016.44;1710296;81;25819;-67
2021/09/29 12:56:18;;;;;;;12.78;6.40;;;;;;;20.31;50.69;100997.23;1723146;81;27517;-67
2021/09/29 12:58:33;;;;;;;15.75;6.92;;;;;;;20.48;50.76;100994.08;1712419;81;25814;-67
2021/09/29 13:01:00;;;;;;;16.48;6.72;;;;;;;20.61;50.52;100995.34;1708046;81;25796;-67
2021/09/29 13:03:27;;;;;;;15.93;7.28;;;;;;;20.60;50.18;100996.33;1710909;81;26251;-67
2021/09/29 13:05:55;;;;;;;13.68;6.58;;;;;;;20.44;49.97;100995.31;1713785;81;26524;-68
2021/09/29 13:08:21;;;;;;;11.65;6.58;;;;;;;20.29;49.93;100998.71;1725537;81;27434;-69
2021/09/29 13:10:47;;;;;;;14.38;7.37;;;;;;;20.18;50.04;100999.17;1716157;81;25780;-69
2021/09/29 13:13:13;;;;;;;11.97;7.40;;;;;;;20.15;50.03;100991.25;1722337;81;25557;-67
2021/09/29 13:15:43;;;;;;;16.67;7.47;;;;;;;20.15;50.15;100996.20;1743354;81;25751;-67
2021/09/29 13:18:16;;;;;;;19.17;8.15;;;;;;;20.09;49.97;100993.95;1727092;81;25614;-68
2021/09/29 13:20:40;;;;;;;20.50;7.85;;;;;;;20.06;50.00;100999.63;1733922;81;27461;-69
2021/09/29 13:23:15;;;;;;;12.35;6.92;;;;;;;20.04;50.08;101001.61;1723818;81;25958;-68
2021/09/29 13:38:55;;;;;;;32.15;14.15;;;;;;;20.08;50.05;101008.05;1682719;83;26249;-66